Time;durP1;ratioP1;P1;durP2;ratioP2;P2;SDS_P1;SDS_P2;PMS_P1;PMS_P2;Temp;Humidity;BMP_temperature;BMP_pressure;BME280_temperature;BME280_humidity;BME280_pressure;Samples;Min_cycle;Max_cycle;Signal;HPM_P1;HPM_P2
2023/09/24 00:00:58;;;;;;;11.57;6.97;;;11.00;90.10;;;;;;5039268;28;20073;-74
2023/09/24 00:03:24;;;;;;;10.25;5.80;;;11.10;90.20;;;;;;5045577;28;20124;-75
2023/09/24 00:05:53;;;;;;;10.60;5.82;;;11.00;90.30;;;;;;5035740;28;20045;-75
2023/09/24 00:08:19;;;;;;;12.27;5.75;;;11.00;90.30;;;;;;5036752;28;20032;-74
2023/09/24 00:10:52;;;;;;;10.20;5.68;;;11.00;90.30;;;;;;5031963;28;20052;-74
2023/09/24 00:13:22;;;;;;;9.30;5.38;;;11.00;90.40;;;;;;5039148;28;20037;-76
2023/09/24 00:15:50;;;;;;;10.73;6.03;;;10.90;90.40;;;;;;5038339;28;20488;-75
2023/09/24 00:18:22;;;;;;;10.27;5.75;;;10.90;90.40;;;;;;5032425;28;20038;-74
2023/09/24 00:20:49;;;;;;;10.48;6.45;;;10.90;90.40;;;;;;5035125;28;20434;-74
2023/09/24 00:23:15;;;;;;;10.07;6.05;;;10.80;90.40;;;;;;5041114;28;20033;-76
2023/09/24 00:25:41;;;;;;;10.00;5.30;;;10.80;90.40;;;;;;5038773;28;20105;-75
2023/09/24 00:28:07;;;;;;;9.65;5.15;;;10.80;90.40;;;;;;5037424;28;20067;-75
2023/09/24 00:30:34;;;;;;;9.38;5.07;;;10.80;90.40;;;;;;5032497;28;20037;-75
2023/09/24 00:33:00;;;;;;;10.27;5.97;;;10.70;90.50;;;;;;5036436;28;20407;-75
2023/09/24 00:35:26;;;;;;;11.50;5.10;;;10.70;90.50;;;;;;5041370;28;20044;-75
2023/09/24 00:37:52;;;;;;;11.88;5.65;;;10.70;90.60;;;;;;5037774;28;20067;-74
2023/09/24 00:40:18;;;;;;;8.98;4.88;;;10.70;90.70;;;;;;5030322;28;20493;-75
2023/09/24 00:42:45;;;;;;;8.63;4.80;;;10.70;90.70;;;;;;5033963;28;20029;-76
2023/09/24 00:45:11;;;;;;;10.27;5.10;;;10.70;90.80;;;;;;5038098;28;20025;-72
2023/09/24 00:47:43;;;;;;;11.10;5.85;;;10.70;90.90;;;;;;5038757;28;20022;-75
2023/09/24 00:50:12;;;;;;;9.27;5.18;;;10.70;90.90;;;;;;5035013;28;20045;-76
2023/09/24 00:52:39;;;;;;;9.98;4.88;;;10.70;90.90;;;;;;5039812;28;20053;-75
2023/09/24 00:55:08;;;;;;;10.07;5.45;;;10.70;90.90;;;;;;5033205;28;20033;-75
2023/09/24 00:57:35;;;;;;;9.98;5.30;;;10.70;91.00;;;;;;5033659;28;20113;-75
2023/09/24 01:00:11;;;;;;;11.73;5.18;;;10.70;91.00;;;;;;5031273;28;20076;-74
2023/09/24 01:02:40;;;;;;;11.90;5.88;;;10.70;90.90;;;;;;5036615;28;20128;-74
2023/09/24 01:05:10;;;;;;;9.77;5.45;;;10.60;91.00;;;;;;5033424;28;20124;-74
2023/09/24 01:07:37;;;;;;;11.25;5.20;;;10.70;91.10;;;;;;5034549;28;20923;-74
2023/09/24 01:10:04;;;;;;;13.02;5.63;;;10.60;91.10;;;;;;5037657;28;20593;-77
2023/09/24 01:12:30;;;;;;;11.80;5.80;;;10.70;91.30;;;;;;5033225;28;20092;-74
2023/09/24 01:14:57;;;;;;;12.98;6.07;;;10.80;91.40;;;;;;5031695;28;20116;-74
2023/09/24 01:17:25;;;;;;;11.45;6.10;;;10.80;91.50;;;;;;5040601;28;20530;-76
2023/09/24 01:19:54;;;;;;;9.73;6.35;;;10.90;91.40;;;;;;5032587;28;20037;-74
2023/09/24 01:22:21;;;;;;;15.73;6.30;;;10.80;91.40;;;;;;5037232;28;20519;-74
2023/09/24 01:24:47;;;;;;;9.95;6.30;;;10.80;91.40;;;;;;5029570;28;20048;-76
2023/09/24 01:27:13;;;;;;;12.65;6.57;;;10.80;91.40;;;;;;5031777;28;20021;-74
2023/09/24 01:29:39;;;;;;;12.35;5.65;;;10.80;91.40;;;;;;5029101;28;20368;-74
2023/09/24 01:32:06;;;;;;;11.80;5.82;;;10.80;91.60;;;;;;5031876;28;20021;-75
2023/09/24 01:34:34;;;;;;;11.73;5.95;;;10.70;91.50;;;;;;5039300;28;20365;-74
2023/09/24 01:37:07;;;;;;;12.65;6.20;;;10.70;91.50;;;;;;5037376;28;20513;-76
2023/09/24 01:39:33;;;;;;;8.18;4.93;;;10.60;91.50;;;;;;5031318;28;20780;-77
2023/09/24 01:42:00;;;;;;;14.65;6.22;;;10.60;91.50;;;;;;5033503;28;20033;-75
2023/09/24 01:44:26;;;;;;;9.95;4.97;;;10.60;91.50;;;;;;5037293;28;20083;-74
2023/09/24 01:46:52;;;;;;;9.07;5.35;;;10.60;91.60;;;;;;5039918;28;20025;-76
2023/09/24 01:49:17;;;;;;;12.27;5.57;;;10.60;91.60;;;;;;5038555;28;20534;-75
2023/09/24 01:51:46;;;;;;;11.07;5.95;;;10.60;91.60;;;;;;5029779;28;20021;-74
2023/09/24 01:54:12;;;;;;;11.50;4.95;;;10.60;91.60;;;;;;5032192;28;20033;-75
2023/09/24 01:56:38;;;;;;;13.82;5.78;;;10.60;91.60;;;;;;5035036;28;20043;-76
2023/09/24 01:59:05;;;;;;;12.02;5.88;;;10.50;91.60;;;;;;5040128;28;20351;-76
2023/09/24 02:01:31;;;;;;;12.73;5.53;;;10.60;91.70;;;;;;5034153;28;20112;-73
2023/09/24 02:04:01;;;;;;;11.68;5.43;;;10.60;91.70;;;;;;5030741;28;20039;-73
2023/09/24 02:06:27;;;;;;;11.45;5.85;;;10.60;91.80;;;;;;5036511;28;20072;-74
2023/09/24 02:08:53;;;;;;;10.55;5.50;;;10.60;91.70;;;;;;5037866;28;20030;-73
2023/09/24 02:11:20;;;;;;;10.30;5.45;;;10.50;91.70;;;;;;5035270;28;20586;-73
2023/09/24 02:13:46;;;;;;;11.35;5.82;;;10.60;91.80;;;;;;5038654;28;20044;-74
2023/09/24 02:16:12;;;;;;;13.23;6.38;;;10.50;91.80;;;;;;5030797;28;20037;-74
2023/09/24 02:18:38;;;;;;;13.00;5.82;;;10.60;91.80;;;;;;5034532;28;20041;-76
2023/09/24 02:21:13;;;;;;;12.00;5.38;;;10.50;91.80;;;;;;5033770;28;20056;-74
2023/09/24 02:23:40;;;;;;;12.35;5.15;;;10.50;91.80;;;;;;5033029;28;20552;-76
2023/09/24 02:26:07;;;;;;;10.55;5.25;;;10.50;91.80;;;;;;5038494;28;20060;-73
2023/09/24 02:28:33;;;;;;;9.57;5.10;;;10.50;91.80;;;;;;5038294;28;20044;-73
2023/09/24 02:30:59;;;;;;;9.48;4.80;;;10.50;91.80;;;;;;5037304;28;20063;-75
2023/09/24 02:33:26;;;;;;;10.18;5.38;;;10.40;91.70;;;;;;5035887;28;20788;-75
2023/09/24 02:35:51;;;;;;;10.75;5.00;;;10.40;91.70;;;;;;5031868;28;20052;-74
2023/09/24 02:38:18;;;;;;;8.73;4.80;;;10.40;91.80;;;;;;5036244;28;21819;-76
2023/09/24 02:40:43;;;;;;;9.60;4.57;;;10.40;91.80;;;;;;5019967;28;20041;-74
2023/09/24 02:43:09;;;;;;;11.38;5.38;;;10.40;91.90;;;;;;5017243;28;20045;-75
2023/09/24 02:45:35;;;;;;;12.27;5.32;;;10.40;92.10;;;;;;5023203;28;20112;-74
2023/09/24 02:48:04;;;;;;;11.80;5.90;;;10.40;92.10;;;;;;5021031;28;20399;-74
2023/09/24 02:50:29;;;;;;;11.38;5.47;;;10.40;92.20;;;;;;5017968;28;20128;-76
2023/09/24 02:53:00;;;;;;;11.93;5.32;;;10.50;92.20;;;;;;5020795;28;20105;-74
2023/09/24 02:55:28;;;;;;;9.70;4.65;;;10.50;92.30;;;;;;5011406;28;20041;-74
2023/09/24 02:57:54;;;;;;;12.13;4.97;;;10.50;92.40;;;;;;5019834;28;20464;-74
2023/09/24 03:00:26;;;;;;;14.45;5.20;;;10.50;92.30;;;;;;5009421;28;20044;-74
2023/09/24 03:02:57;;;;;;;9.98;5.72;;;10.40;92.20;;;;;;5015717;28;20185;-73
2023/09/24 03:05:25;;;;;;;11.70;5.35;;;10.40;92.30;;;;;;5015748;28;20026;-73
2023/09/24 03:07:51;;;;;;;12.18;5.22;;;10.40;92.30;;;;;;5018621;28;20021;-76
2023/09/24 03:10:18;;;;;;;10.50;4.85;;;10.40;92.40;;;;;;5015460;28;20043;-75
2023/09/24 03:12:44;;;;;;;11.75;4.85;;;10.40;92.40;;;;;;5020837;28;20033;-74
2023/09/24 03:15:10;;;;;;;9.45;5.20;;;10.30;92.50;;;;;;5024914;28;20064;-76
2023/09/24 03:17:37;;;;;;;10.02;4.28;;;10.30;92.50;;;;;;5038606;28;20024;-74
2023/09/24 03:20:05;;;;;;;9.07;4.25;;;10.30;92.60;;;;;;5016937;28;20049;-73
2023/09/24 03:22:31;;;;;;;10.77;5.22;;;10.20;92.60;;;;;;5017867;28;20435;-76
2023/09/24 03:24:57;;;;;;;9.00;4.82;;;10.30;92.60;;;;;;5009869;28;20030;-74
2023/09/24 03:27:23;;;;;;;10.32;4.60;;;10.30;92.60;;;;;;5020914;28;20603;-76
2023/09/24 03:29:48;;;;;;;12.05;4.70;;;10.30;92.60;;;;;;5014732;28;21696;-73
2023/09/24 03:32:14;;;;;;;8.88;5.03;;;10.30;92.70;;;;;;5023047;28;20022;-74
2023/09/24 03:34:40;;;;;;;11.93;5.78;;;10.30;92.60;;;;;;5017915;28;20145;-74
2023/09/24 03:37:09;;;;;;;11.50;5.18;;;10.20;92.70;;;;;;5019928;28;20096;-74
2023/09/24 03:39:35;;;;;;;10.10;5.43;;;10.20;92.70;;;;;;5017184;28;20037;-74
2023/09/24 03:42:01;;;;;;;8.23;4.65;;;10.20;92.70;;;;;;5017216;28;20033;-74
2023/09/24 03:44:27;;;;;;;8.30;4.93;;;10.20;92.70;;;;;;5009314;28;20037;-73
2023/09/24 03:46:53;;;;;;;9.90;5.55;;;10.10;92.80;;;;;;5019303;28;20210;-74
2023/09/24 03:49:19;;;;;;;11.43;5.15;;;10.10;92.80;;;;;;5015650;28;20544;-75
2023/09/24 03:51:44;;;;;;;9.25;4.78;;;10.10;92.80;;;;;;5015993;28;20036;-72
2023/09/24 03:54:11;;;;;;;9.63;5.07;;;10.10;92.80;;;;;;5010819;28;20068;-74
2023/09/24 03:56:37;;;;;;;13.82;5.20;;;10.10;92.80;;;;;;5016683;28;20387;-73
2023/09/24 03:59:03;;;;;;;14.85;5.75;;;10.10;92.90;;;;;;5012088;28;20152;-74
2023/09/24 04:01:31;;;;;;;9.27;4.85;;;10.10;92.90;;;;;;5008346;28;20131;-74
2023/09/24 04:03:59;;;;;;;9.80;4.80;;;10.10;92.90;;;;;;5011923;28;20042;-72
2023/09/24 04:06:25;;;;;;;10.02;4.57;;;10.10;92.90;;;;;;5012483;28;20060;-73
2023/09/24 04:08:50;;;;;;;10.82;4.90;;;10.10;93.00;;;;;;5009199;28;20508;-73
2023/09/24 04:11:16;;;;;;;9.90;4.78;;;10.00;93.00;;;;;;5016902;28;20087;-73
2023/09/24 04:13:42;;;;;;;10.18;4.55;;;10.00;93.00;;;;;;5015153;28;20777;-73
2023/09/24 04:16:14;;;;;;;9.65;4.70;;;10.10;93.00;;;;;;5009203;28;20214;-75
2023/09/24 04:18:43;;;;;;;9.43;5.13;;;10.00;93.00;;;;;;5015440;28;20109;-74
2023/09/24 04:21:17;;;;;;;11.18;5.22;;;10.00;93.00;;;;;;5010321;28;20723;-73
2023/09/24 04:23:43;;;;;;;10.18;4.57;;;10.00;93.10;;;;;;5009273;28;20037;-74
2023/09/24 04:26:19;;;;;;;10.07;4.07;;;10.00;93.10;;;;;;5018968;28;20044;-76
2023/09/24 04:28:45;;;;;;;8.30;4.53;;;9.90;93.10;;;;;;5009128;28;20034;-74
2023/09/24 04:31:11;;;;;;;10.25;5.05;;;10.00;93.20;;;;;;5014999;28;20253;-75
2023/09/24 04:33:37;;;;;;;7.93;4.28;;;9.90;93.20;;;;;;5017501;28;20033;-75
2023/09/24 04:36:05;;;;;;;11.57;5.10;;;9.90;93.20;;;;;;5035508;28;20029;-74
2023/09/24 04:38:31;;;;;;;8.82;4.90;;;9.90;93.20;;;;;;5033770;28;20025;-74
2023/09/24 04:40:57;;;;;;;10.50;4.97;;;9.80;93.20;;;;;;5036406;28;20076;-74
2023/09/24 04:43:23;;;;;;;10.88;5.13;;;9.90;93.20;;;;;;5033955;28;20076;-74
2023/09/24 04:45:49;;;;;;;11.55;4.97;;;9.90;93.30;;;;;;5031492;28;20044;-75
2023/09/24 04:48:15;;;;;;;9.45;4.20;;;9.90;93.40;;;;;;5033884;28;20038;-76
2023/09/24 04:50:41;;;;;;;9.18;4.03;;;9.90;93.40;;;;;;5028022;28;20087;-74
2023/09/24 04:53:07;;;;;;;10.50;4.55;;;9.80;93.40;;;;;;5018123;28;20033;-73
2023/09/24 04:55:33;;;;;;;9.50;4.78;;;9.90;93.40;;;;;;5021755;28;20034;-77
2023/09/24 04:58:00;;;;;;;12.75;4.72;;;9.90;93.40;;;;;;5021340;28;20072;-73
2023/09/24 05:00:26;;;;;;;9.02;4.38;;;9.90;93.50;;;;;;5015752;28;20041;-73
2023/09/24 05:02:51;;;;;;;9.50;4.75;;;9.90;93.50;;;;;;5018321;28;20025;-73
2023/09/24 05:05:17;;;;;;;9.00;4.45;;;9.90;93.60;;;;;;5009525;28;20076;-75
2023/09/24 05:07:43;;;;;;;10.35;4.75;;;9.90;93.50;;;;;;5016323;28;20032;-73
2023/09/24 05:10:10;;;;;;;8.70;4.35;;;9.90;93.50;;;;;;5014275;28;20667;-75
2023/09/24 05:12:36;;;;;;;9.63;4.88;;;9.90;93.60;;;;;;5016018;28;20047;-75
2023/09/24 05:15:03;;;;;;;10.75;5.20;;;9.90;93.60;;;;;;5014475;28;20141;-75
2023/09/24 05:17:29;;;;;;;10.50;4.18;;;9.90;93.60;;;;;;5019906;28;20519;-74
2023/09/24 05:19:55;;;;;;;8.27;4.40;;;9.80;93.60;;;;;;5032838;28;20543;-74
2023/09/24 05:22:21;;;;;;;9.43;4.55;;;9.90;93.60;;;;;;5038080;28;20396;-76
2023/09/24 05:24:47;;;;;;;11.20;4.60;;;9.80;93.60;;;;;;5038247;28;20064;-74
2023/09/24 05:27:12;;;;;;;9.15;4.40;;;9.90;93.60;;;;;;5034798;28;20061;-73
2023/09/24 05:29:38;;;;;;;9.93;4.40;;;9.90;93.60;;;;;;5031917;28;20033;-73
2023/09/24 05:32:04;;;;;;;8.55;3.72;;;9.90;93.60;;;;;;5035434;28;20057;-74
2023/09/24 05:34:30;;;;;;;10.20;4.30;;;9.90;93.60;;;;;;5031999;28;20360;-73
2023/09/24 05:36:55;;;;;;;10.27;4.30;;;9.90;93.60;;;;;;5036061;28;20067;-74
2023/09/24 05:39:21;;;;;;;9.88;4.50;;;9.90;93.70;;;;;;5035277;28;20048;-70
2023/09/24 05:41:47;;;;;;;10.07;4.80;;;9.90;93.70;;;;;;5032459;28;20044;-74
2023/09/24 05:44:16;;;;;;;11.93;4.95;;;10.00;93.70;;;;;;5034862;28;20486;-71
2023/09/24 05:46:41;;;;;;;10.88;5.10;;;10.00;93.70;;;;;;5036900;28;20029;-73
2023/09/24 05:49:08;;;;;;;11.65;4.80;;;10.00;93.70;;;;;;5037655;28;20861;-71
2023/09/24 05:51:34;;;;;;;9.70;5.35;;;10.10;93.60;;;;;;5032708;28;20038;-72
2023/09/24 05:54:00;;;;;;;13.95;5.35;;;10.10;93.60;;;;;;5040788;28;20135;-71
2023/09/24 05:56:26;;;;;;;10.63;5.53;;;10.10;93.60;;;;;;5033359;28;20075;-72
2023/09/24 05:58:52;;;;;;;11.82;5.38;;;10.10;93.60;;;;;;5035563;28;20661;-75
2023/09/24 06:01:17;;;;;;;12.23;5.20;;;10.10;93.50;;;;;;5038686;28;20136;-76
2023/09/24 06:03:43;;;;;;;11.63;6.13;;;10.10;93.50;;;;;;5037478;28;20041;-72
2023/09/24 06:06:09;;;;;;;15.07;6.38;;;10.20;93.40;;;;;;5034250;28;20412;-72
2023/09/24 06:08:36;;;;;;;15.00;6.82;;;10.20;93.40;;;;;;5040506;28;20033;-75
2023/09/24 06:11:02;;;;;;;14.02;6.50;;;10.30;93.40;;;;;;5037285;28;20134;-72
2023/09/24 06:13:28;;;;;;;16.27;6.45;;;10.40;93.40;;;;;;5031306;28;20483;-72
2023/09/24 06:15:59;;;;;;;11.57;5.20;;;10.30;93.30;;;;;;5045070;28;20044;-73
2023/09/24 06:18:25;;;;;;;15.20;6.57;;;10.40;93.30;;;;;;5033520;28;20033;-72
2023/09/24 06:20:51;;;;;;;10.73;5.28;;;10.50;93.30;;;;;;5018875;28;20050;-72
2023/09/24 06:23:17;;;;;;;15.18;6.28;;;10.60;93.40;;;;;;5022768;28;20590;-71
2023/09/24 06:25:42;;;;;;;11.85;5.00;;;10.90;93.50;;;;;;5017726;28;20713;-76
2023/09/24 06:28:11;;;;;;;14.80;5.90;;;11.40;93.10;;;;;;5019930;28;20038;-74
2023/09/24 06:30:39;;;;;;;10.52;4.88;;;12.10;91.90;;;;;;5019061;28;20068;-73
2023/09/24 06:33:05;;;;;;;11.98;4.80;;;12.90;89.60;;;;;;5017126;28;20044;-76
2023/09/24 06:35:36;;;;;;;11.70;5.30;;;13.70;87.40;;;;;;5021511;28;20030;-73
2023/09/24 06:38:02;;;;;;;10.45;4.45;;;14.30;84.50;;;;;;5014979;28;20139;-73
2023/09/24 06:40:28;;;;;;;11.02;4.63;;;14.50;81.60;;;;;;5012577;28;20053;-72
2023/09/24 06:42:55;;;;;;;9.88;4.28;;;14.60;81.00;;;;;;5011702;28;20396;-72
2023/09/24 06:45:21;;;;;;;13.98;4.53;;;14.10;80.70;;;;;;5022711;28;20033;-72
2023/09/24 06:47:46;;;;;;;10.48;4.10;;;13.70;82.30;;;;;;5026181;28;20036;-72
2023/09/24 06:50:12;;;;;;;13.45;4.63;;;13.30;83.50;;;;;;5021602;28;20075;-75
2023/09/24 06:52:39;;;;;;;9.95;4.15;;;13.00;84.80;;;;;;5024382;28;20025;-74
2023/09/24 06:55:08;;;;;;;11.15;4.60;;;12.70;85.80;;;;;;5019659;28;20112;-75
2023/09/24 06:57:35;;;;;;;12.60;4.63;;;12.60;86.70;;;;;;5024818;28;20623;-75
2023/09/24 07:00:04;;;;;;;11.35;4.47;;;12.60;87.30;;;;;;5033235;28;20037;-77
2023/09/24 07:02:30;;;;;;;11.82;4.03;;;12.50;87.70;;;;;;5027840;28;20105;-74
2023/09/24 07:04:55;;;;;;;12.07;4.53;;;12.60;88.00;;;;;;5028392;28;20038;-76
2023/09/24 07:07:21;;;;;;;9.85;4.22;;;12.60;88.00;;;;;;5027769;28;20698;-73
2023/09/24 07:09:48;;;;;;;11.05;4.28;;;12.60;88.30;;;;;;5027638;28;20555;-74
2023/09/24 07:12:16;;;;;;;10.65;4.15;;;12.60;88.40;;;;;;5032540;28;20467;-76
2023/09/24 07:14:42;;;;;;;9.52;3.67;;;12.70;88.40;;;;;;5028648;28;20179;-74
2023/09/24 07:17:07;;;;;;;11.02;4.68;;;12.80;88.60;;;;;;5032428;28;20100;-73
2023/09/24 07:19:33;;;;;;;9.95;4.05;;;12.80;88.70;;;;;;5029013;28;20392;-75
2023/09/24 07:21:59;;;;;;;11.30;4.25;;;13.00;88.60;;;;;;5035459;28;20046;-72
2023/09/24 07:24:26;;;;;;;11.18;4.22;;;13.10;88.30;;;;;;5037876;28;20454;-71
2023/09/24 07:26:51;;;;;;;10.27;4.28;;;13.30;87.80;;;;;;5038315;28;20061;-73
2023/09/24 07:29:17;;;;;;;12.85;4.03;;;13.40;87.90;;;;;;5032399;28;20041;-73
2023/09/24 07:31:43;;;;;;;9.88;3.50;;;13.60;87.30;;;;;;5033727;28;20022;-76
2023/09/24 07:34:10;;;;;;;13.05;4.82;;;13.70;87.20;;;;;;5035266;28;20093;-73
2023/09/24 07:36:36;;;;;;;9.10;3.90;;;14.00;87.00;;;;;;5010791;28;20052;-73
2023/09/24 07:39:03;;;;;;;12.60;4.03;;;14.20;86.20;;;;;;5016436;28;20041;-74
2023/09/24 07:41:29;;;;;;;9.40;3.72;;;14.40;85.40;;;;;;5013438;28;20130;-73
2023/09/24 07:43:55;;;;;;;8.88;3.60;;;14.60;84.90;;;;;;5023296;28;20130;-73
2023/09/24 07:46:20;;;;;;;9.25;3.70;;;14.80;84.50;;;;;;5021973;28;20041;-74
2023/09/24 07:48:48;;;;;;;11.10;3.70;;;15.00;83.40;;;;;;5018046;28;20080;-72
2023/09/24 07:51:16;;;;;;;8.55;3.13;;;15.10;83.00;;;;;;5014419;28;20072;-72
2023/09/24 07:53:42;;;;;;;10.18;2.95;;;15.20;82.30;;;;;;5020201;28;20042;-74
2023/09/24 07:56:09;;;;;;;7.38;3.20;;;15.40;82.20;;;;;;5022090;28;20420;-73
2023/09/24 07:58:36;;;;;;;9.52;3.22;;;15.50;81.70;;;;;;5022010;28;20200;-73
2023/09/24 08:01:07;;;;;;;10.35;3.30;;;15.50;81.30;;;;;;5033634;28;20127;-72
2023/09/24 08:03:33;;;;;;;10.52;2.78;;;15.50;81.30;;;;;;5029065;28;20038;-73
2023/09/24 08:05:59;;;;;;;8.70;3.20;;;15.60;80.70;;;;;;5035620;28;20069;-73
2023/09/24 08:08:29;;;;;;;9.80;3.15;;;15.60;80.60;;;;;;5036625;28;20118;-76
2023/09/24 08:10:55;;;;;;;7.90;3.10;;;15.60;80.40;;;;;;5033652;28;20028;-74
2023/09/24 08:13:21;;;;;;;7.95;2.95;;;15.60;80.20;;;;;;5037769;28;20021;-73
2023/09/24 08:15:47;;;;;;;11.18;3.55;;;15.70;80.80;;;;;;5035224;28;20257;-74
2023/09/24 08:18:13;;;;;;;7.45;3.22;;;15.70;79.80;;;;;;5033534;28;20044;-75
2023/09/24 08:20:40;;;;;;;7.63;2.83;;;15.80;80.00;;;;;;5037290;28;20060;-73
2023/09/24 08:23:06;;;;;;;7.45;3.08;;;15.90;80.60;;;;;;5035222;28;20091;-74
2023/09/24 08:25:32;;;;;;;10.50;3.88;;;15.90;79.20;;;;;;5038266;28;20029;-77
2023/09/24 08:27:58;;;;;;;9.65;3.70;;;15.90;79.50;;;;;;5035835;28;20175;-74
2023/09/24 08:30:26;;;;;;;9.43;3.33;;;16.10;79.60;;;;;;5035865;28;20037;-74
2023/09/24 08:32:52;;;;;;;11.15;3.83;;;16.20;79.10;;;;;;5032816;28;20028;-75
2023/09/24 08:35:18;;;;;;;10.43;3.60;;;16.40;79.10;;;;;;5024951;28;20029;-74
2023/09/24 08:37:44;;;;;;;9.45;3.40;;;16.60;78.10;;;;;;5019221;28;20292;-73
2023/09/24 08:40:15;;;;;;;7.85;3.25;;;16.80;77.90;;;;;;5021564;28;20041;-71
2023/09/24 08:42:45;;;;;;;10.55;3.67;;;16.90;77.50;;;;;;5021296;28;20032;-73
2023/09/24 08:45:14;;;;;;;7.90;3.22;;;17.00;77.30;;;;;;5034483;28;20049;-73
2023/09/24 08:47:41;;;;;;;9.38;3.40;;;17.00;77.40;;;;;;5021852;28;20030;-71
2023/09/24 08:50:08;;;;;;;7.63;3.00;;;17.10;77.20;;;;;;5022562;28;20391;-71
2023/09/24 08:52:40;;;;;;;6.97;2.88;;;17.30;76.70;;;;;;5022469;28;20024;-71
2023/09/24 08:55:10;;;;;;;7.32;3.13;;;17.30;76.80;;;;;;5042146;28;20074;-71
2023/09/24 08:57:39;;;;;;;7.00;2.90;;;17.50;76.30;;;;;;5033843;28;20108;-72
2023/09/24 09:00:06;;;;;;;9.63;3.10;;;17.60;75.80;;;;;;5033923;28;20037;-72
2023/09/24 09:02:33;;;;;;;10.25;3.20;;;17.70;75.30;;;;;;5031463;28;20405;-72
2023/09/24 09:04:59;;;;;;;8.93;3.50;;;17.80;74.90;;;;;;5017986;28;20038;-71
2023/09/24 09:07:24;;;;;;;8.48;3.00;;;17.90;74.40;;;;;;5015776;28;20033;-72
2023/09/24 09:09:55;;;;;;;9.40;3.40;;;17.80;74.70;;;;;;5013979;28;20547;-71
2023/09/24 09:12:23;;;;;;;7.65;2.95;;;17.60;74.10;;;;;;5018603;28;20021;-73
2023/09/24 09:14:49;;;;;;;7.90;2.90;;;17.70;74.20;;;;;;5013775;28;20045;-70
2023/09/24 09:17:15;;;;;;;9.65;3.40;;;17.90;73.60;;;;;;5019745;28;20029;-70
2023/09/24 09:19:49;;;;;;;8.23;3.03;;;18.00;73.50;;;;;;5014710;28;20679;-69
2023/09/24 09:22:22;;;;;;;7.95;2.70;;;18.10;72.30;;;;;;5021214;28;20120;-70
2023/09/24 09:25:09;;;;;;;6.35;2.90;;;18.10;72.60;;;;;;5015652;28;20030;-71
2023/09/24 09:27:42;;;;;;;7.75;2.92;;;18.20;72.40;;;;;;5015352;28;20030;-70
2023/09/24 09:30:18;;;;;;;9.68;2.95;;;18.40;72.00;;;;;;5031462;28;20022;-71
2023/09/24 09:32:45;;;;;;;8.05;3.10;;;18.60;72.60;;;;;;5040881;28;20021;-71
2023/09/24 09:35:12;;;;;;;7.30;2.75;;;18.60;72.00;;;;;;5037830;28;20555;-73
2023/09/24 09:37:39;;;;;;;8.75;3.03;;;18.80;71.60;;;;;;5036628;28;20027;-72
2023/09/24 09:40:08;;;;;;;7.30;2.90;;;18.90;70.50;;;;;;5039345;28;20025;-70
2023/09/24 09:42:37;;;;;;;7.82;2.92;;;19.00;71.00;;;;;;5035575;28;20088;-73
2023/09/24 09:45:08;;;;;;;10.02;3.47;;;19.10;69.80;;;;;;5033365;28;20037;-73
2023/09/24 09:47:42;;;;;;;7.82;2.97;;;19.10;69.60;;;;;;5035374;28;20025;-72
2023/09/24 09:50:12;;;;;;;9.73;3.50;;;19.10;68.90;;;;;;5032603;28;20201;-72
2023/09/24 09:52:43;;;;;;;7.13;3.13;;;19.10;69.00;;;;;;5017650;28;20025;-72
2023/09/24 09:55:09;;;;;;;10.60;3.50;;;19.30;69.30;;;;;;5023606;28;20403;-73
2023/09/24 09:57:35;;;;;;;9.32;3.35;;;19.40;69.80;;;;;;5017136;28;20029;-72
2023/09/24 10:00:10;;;;;;;8.27;3.28;;;19.60;68.90;;;;;;5019556;28;20057;-71
2023/09/24 10:02:39;;;;;;;9.00;2.92;;;19.50;67.60;;;;;;5010901;28;20026;-70
2023/09/24 10:05:06;;;;;;;8.63;3.22;;;19.40;68.00;;;;;;5024702;28;20036;-71
2023/09/24 10:07:40;;;;;;;8.52;3.30;;;19.50;67.60;;;;;;5035897;28;20029;-70
2023/09/24 10:10:40;;;;;;;8.05;3.33;;;19.40;67.70;;;;;;5010677;28;20688;-70
2023/09/24 10:13:06;;;;;;;8.20;3.05;;;19.50;67.50;;;;;;5009393;28;20048;-72
2023/09/24 10:15:32;;;;;;;5.60;2.65;;;19.60;66.50;;;;;;5012918;28;20048;-69
2023/09/24 10:18:22;;;;;;;8.07;2.90;;;19.80;66.80;;;;;;5013615;28;20041;-70
2023/09/24 10:20:55;;;;;;;7.88;3.10;;;19.80;66.90;;;;;;5012850;28;20080;-71
2023/09/24 10:23:31;;;;;;;7.50;3.00;;;19.70;65.70;;;;;;5010867;28;20546;-73
2023/09/24 10:26:00;;;;;;;7.07;3.25;;;19.80;65.90;;;;;;5011455;28;20072;-73
2023/09/24 10:28:48;;;;;;;7.38;2.72;;;19.80;66.20;;;;;;5011541;28;20030;-72
2023/09/24 10:31:14;;;;;;;7.75;2.80;;;20.00;67.00;;;;;;5010167;28;20373;-70
2023/09/24 10:34:01;;;;;;;9.65;3.40;;;20.20;65.40;;;;;;5012799;28;20042;-73
2023/09/24 10:36:29;;;;;;;6.20;2.83;;;20.30;64.50;;;;;;5018344;28;20033;-71
2023/09/24 10:39:05;;;;;;;7.35;2.72;;;20.30;64.30;;;;;;5013951;28;20049;-72
2023/09/24 10:41:35;;;;;;;7.00;2.67;;;20.30;63.00;;;;;;5018723;28;20152;-73
2023/09/24 10:44:21;;;;;;;8.45;3.00;;;20.40;62.20;;;;;;5018296;28;20528;-70
2023/09/24 10:46:47;;;;;;;7.78;2.80;;;20.50;61.90;;;;;;5017164;28;20515;-72
2023/09/24 10:49:21;;;;;;;10.40;2.85;;;20.40;61.30;;;;;;5012472;28;20049;-71
2023/09/24 10:51:58;;;;;;;7.28;2.72;;;20.50;62.80;;;;;;5018735;28;20033;-71
2023/09/24 10:54:23;;;;;;;7.95;2.45;;;20.50;61.00;;;;;;5027091;28;20048;-70
2023/09/24 10:56:49;;;;;;;7.22;2.90;;;20.60;62.00;;;;;;5013856;28;20026;-70
2023/09/24 10:59:16;;;;;;;8.57;2.65;;;20.60;61.60;;;;;;5014374;28;20318;-71
2023/09/24 11:01:42;;;;;;;6.90;2.92;;;20.70;60.90;;;;;;5016295;28;20072;-75
2023/09/24 11:04:09;;;;;;;7.95;2.63;;;20.70;60.20;;;;;;5013893;28;20041;-72
2023/09/24 11:06:35;;;;;;;6.53;2.28;;;20.90;62.30;;;;;;5016417;28;20542;-71
2023/09/24 11:09:21;;;;;;;7.57;2.60;;;20.80;61.20;;;;;;5014256;28;20507;-72
2023/09/24 11:11:47;;;;;;;8.68;2.83;;;20.90;59.90;;;;;;5010966;28;20502;-71
2023/09/24 11:14:22;;;;;;;6.22;2.53;;;20.70;60.40;;;;;;5010749;28;20041;-69
2023/09/24 11:16:56;;;;;;;7.45;2.40;;;20.70;61.00;;;;;;5014987;28;20032;-71
2023/09/24 11:19:45;;;;;;;5.68;2.53;;;20.60;59.80;;;;;;5003958;28;20127;-74
2023/09/24 11:22:26;;;;;;;7.07;2.58;;;20.60;60.20;;;;;;5031263;28;20516;-71
2023/09/24 11:25:11;;;;;;;6.22;2.40;;;20.70;60.30;;;;;;5019991;28;20054;-70
2023/09/24 11:27:50;;;;;;;6.68;2.60;;;20.80;59.60;;;;;;5019259;28;20407;-71
2023/09/24 11:30:17;;;;;;;6.20;2.58;;;20.80;60.40;;;;;;5016353;28;20040;-71
2023/09/24 11:32:44;;;;;;;7.70;2.72;;;21.00;61.30;;;;;;5020254;28;20071;-72
2023/09/24 11:35:12;;;;;;;7.03;2.92;;;21.00;59.90;;;;;;5040224;28;20041;-71
2023/09/24 11:37:52;;;;;;;9.20;3.20;;;21.00;60.40;;;;;;5036164;28;20053;-71
2023/09/24 11:40:32;;;;;;;7.45;2.70;;;21.00;60.40;;;;;;5044580;28;20044;-72
2023/09/24 11:42:59;;;;;;;5.40;2.63;;;21.10;60.30;;;;;;5040979;28;20056;-72
2023/09/24 11:46:00;;;;;;;5.82;2.65;;;21.10;59.60;;;;;;5031361;28;20120;-70
2023/09/24 11:48:27;;;;;;;6.68;2.40;;;21.30;60.60;;;;;;5002916;28;20064;-71
2023/09/24 11:50:55;;;;;;;6.07;2.50;;;21.40;60.70;;;;;;5028649;28;20030;-72
2023/09/24 11:53:23;;;;;;;7.82;2.45;;;21.50;60.70;;;;;;5033329;28;20486;-71
2023/09/24 11:55:50;;;;;;;7.10;2.80;;;21.70;60.40;;;;;;5044525;28;20115;-71
2023/09/24 11:58:26;;;;;;;8.75;2.47;;;21.70;58.90;;;;;;5035842;28;20033;-71
2023/09/24 12:00:56;;;;;;;7.00;2.30;;;21.30;58.10;;;;;;5041837;28;20603;-72
2023/09/24 12:03:22;;;;;;;8.55;2.60;;;21.40;58.80;;;;;;5046845;28;20041;-72
2023/09/24 12:05:49;;;;;;;6.88;2.50;;;21.30;59.60;;;;;;5026169;28;20463;-70
2023/09/24 12:08:15;;;;;;;6.63;2.65;;;21.10;58.90;;;;;;5022231;28;20055;-71
2023/09/24 12:10:42;;;;;;;10.13;2.75;;;21.00;58.60;;;;;;5022507;28;20037;-72
2023/09/24 12:13:12;;;;;;;7.68;2.90;;;21.10;58.90;;;;;;5025585;28;20061;-71
2023/09/24 12:15:37;;;;;;;7.50;2.67;;;21.10;59.70;;;;;;5025952;28;20065;-71
2023/09/24 12:18:04;;;;;;;7.15;2.47;;;21.10;57.90;;;;;;5024706;28;20053;-73
2023/09/24 12:20:34;;;;;;;9.68;2.75;;;21.00;59.30;;;;;;5013776;28;20140;-71
2023/09/24 12:23:03;;;;;;;6.90;2.60;;;21.10;59.80;;;;;;5022508;28;20026;-70
2023/09/24 12:25:29;;;;;;;6.05;2.72;;;21.20;59.00;;;;;;5024660;28;20037;-71
2023/09/24 12:27:55;;;;;;;6.78;2.45;;;21.30;59.70;;;;;;5029424;28;20026;-71
2023/09/24 12:30:22;;;;;;;6.97;2.33;;;21.40;58.30;;;;;;5030772;28;20339;-73
2023/09/24 12:32:48;;;;;;;6.07;2.17;;;21.50;59.10;;;;;;5020624;28;20026;-70
2023/09/24 12:35:14;;;;;;;7.40;2.30;;;21.60;58.00;;;;;;5020300;28;20045;-71
2023/09/24 12:37:41;;;;;;;6.15;2.58;;;21.60;57.60;;;;;;5022918;28;20030;-71
2023/09/24 12:40:10;;;;;;;7.65;2.33;;;21.50;57.30;;;;;;5025556;28;20060;-71
2023/09/24 12:42:41;;;;;;;6.90;2.40;;;21.60;58.40;;;;;;5024301;28;20033;-72
2023/09/24 12:45:09;;;;;;;6.43;2.15;;;21.80;58.70;;;;;;5017065;28;20037;-72
2023/09/24 12:47:35;;;;;;;6.32;2.38;;;21.80;58.40;;;;;;5019272;28;20104;-71